createdAt,value
2023-01-08T00:01:08.706Z,71.39
2023-01-08T00:03:36.520Z,70.99
2023-01-08T00:06:06.194Z,71.98
2023-01-08T00:08:33.526Z,71.79
2023-01-08T00:11:01.303Z,71.50
2023-01-08T00:13:28.226Z,71.72
2023-01-08T00:15:55.375Z,71.90
2023-01-08T00:18:22.088Z,72.40
2023-01-08T00:20:49.055Z,71.98
2023-01-08T00:23:18.565Z,71.84
2023-01-08T00:25:45.621Z,71.72
2023-01-08T00:28:12.394Z,72.35
2023-01-08T00:30:39.056Z,72.06
2023-01-08T00:33:05.777Z,71.37
2023-01-08T00:35:32.524Z,71.96
2023-01-08T00:37:59.211Z,72.05
2023-01-08T00:40:25.868Z,72.34
2023-01-08T00:42:52.511Z,71.84
2023-01-08T00:45:19.151Z,72.02
2023-01-08T00:47:45.833Z,72.34
2023-01-08T00:50:12.740Z,71.99
2023-01-08T00:52:39.470Z,71.40
2023-01-08T00:55:06.831Z,72.04
2023-01-08T00:57:39.248Z,72.41
2023-01-08T01:00:08.932Z,72.36
2023-01-08T01:02:36.650Z,71.50
2023-01-08T01:05:04.954Z,72.38
2023-01-08T01:07:33.243Z,71.75
2023-01-08T01:10:00.269Z,71.91
2023-01-08T01:12:27.087Z,72.77
2023-01-08T01:14:53.780Z,72.13
2023-01-08T01:17:20.637Z,72.53
2023-01-08T01:19:47.316Z,72.53
2023-01-08T01:22:13.959Z,71.95
2023-01-08T01:24:40.580Z,71.77
2023-01-08T01:27:07.219Z,71.88
2023-01-08T01:29:33.879Z,71.54
2023-01-08T01:32:00.682Z,71.41
2023-01-08T01:34:27.392Z,71.79
2023-01-08T01:36:54.094Z,71.36
2023-01-08T01:39:21.767Z,70.81
2023-01-08T01:41:48.575Z,71.10
2023-01-08T01:44:45.309Z,70.93
2023-01-08T01:47:37.832Z,70.90
2023-01-08T01:50:13.430Z,70.93
2023-01-08T01:52:44.534Z,70.44
2023-01-08T01:55:13.960Z,70.41
2023-01-08T01:57:44.823Z,71.27
2023-01-08T02:00:12.098Z,70.95
2023-01-08T02:02:39.142Z,70.74
2023-01-08T02:05:06.354Z,70.61
2023-01-08T02:07:41.874Z,71.05
2023-01-08T02:10:38.529Z,71.08
2023-01-08T02:13:12.903Z,71.13
2023-01-08T02:15:52.483Z,71.25
2023-01-08T02:18:28.089Z,71.57
2023-01-08T02:21:21.467Z,71.51
2023-01-08T02:24:11.428Z,71.43
2023-01-08T02:26:38.605Z,71.77
2023-01-08T02:29:13.956Z,71.85
2023-01-08T02:31:42.316Z,71.67
2023-01-08T02:34:10.058Z,72.14
2023-01-08T02:36:39.749Z,72.66
2023-01-08T02:39:16.398Z,72.97
2023-01-08T02:42:05.460Z,72.72
2023-01-08T02:44:48.178Z,72.89
2023-01-08T02:47:25.773Z,73.03
2023-01-08T02:50:05.599Z,73.13
2023-01-08T02:52:36.047Z,73.16
2023-01-08T02:55:03.521Z,73.72
2023-01-08T02:57:32.618Z,73.51
2023-01-08T02:59:59.317Z,73.13
2023-01-08T03:02:31.870Z,74.40
2023-01-08T03:05:06.007Z,74.80
2023-01-08T03:07:33.515Z,74.36
2023-01-08T03:10:00.989Z,74.59
2023-01-08T03:12:45.792Z,75.33
2023-01-08T03:15:17.089Z,74.98
2023-01-08T03:17:48.148Z,74.82
2023-01-08T03:20:18.842Z,75.12
2023-01-08T03:22:49.403Z,75.62
2023-01-08T03:25:19.551Z,75.95
2023-01-08T03:27:51.107Z,75.64
2023-01-08T03:30:19.694Z,76.45
2023-01-08T03:32:48.866Z,75.96
2023-01-08T03:35:20.589Z,76.31
2023-01-08T03:37:54.146Z,76.92
2023-01-08T03:40:25.017Z,76.11
2023-01-08T03:42:52.620Z,74.95
2023-01-08T03:45:21.638Z,75.32
2023-01-08T03:47:49.505Z,74.86
2023-01-08T03:50:26.504Z,75.31
2023-01-08T03:52:53.262Z,74.74
2023-01-08T03:55:20.003Z,74.21
2023-01-08T03:57:46.659Z,74.31
2023-01-08T04:00:13.910Z,73.95
2023-01-08T04:02:42.208Z,73.69
2023-01-08T04:05:10.187Z,74.49
2023-01-08T04:07:37.244Z,74.01
2023-01-08T04:10:04.461Z,73.59
2023-01-08T04:12:31.201Z,73.80
2023-01-08T04:14:57.864Z,73.77
2023-01-08T04:17:24.563Z,73.58
2023-01-08T04:19:51.186Z,73.48
2023-01-08T04:22:18.170Z,73.56
2023-01-08T04:24:44.754Z,73.82
2023-01-08T04:27:11.454Z,74.28
2023-01-08T04:29:38.128Z,73.35
2023-01-08T04:32:05.076Z,74.53
2023-01-08T04:34:31.794Z,74.43
2023-01-08T04:36:59.081Z,74.44
2023-01-08T04:39:25.766Z,73.47
2023-01-08T04:41:52.444Z,74.21
2023-01-08T04:44:19.050Z,74.37
2023-01-08T04:46:45.703Z,74.30
2023-01-08T04:49:12.963Z,74.07
2023-01-08T04:51:40.057Z,73.98
2023-01-08T04:54:07.075Z,74.25
2023-01-08T04:56:33.938Z,73.38
2023-01-08T04:59:00.845Z,73.42
2023-01-08T05:01:28.453Z,73.12
2023-01-08T05:04:00.122Z,72.50
2023-01-08T05:06:29.224Z,72.71
2023-01-08T05:08:56.242Z,73.04
2023-01-08T05:11:23.721Z,72.35
2023-01-08T05:13:51.970Z,72.23
2023-01-08T05:16:18.826Z,72.37
2023-01-08T05:18:45.636Z,71.71
2023-01-08T05:21:13.597Z,71.33
2023-01-08T05:23:44.219Z,71.31
2023-01-08T05:26:10.916Z,71.40
2023-01-08T05:28:37.567Z,70.59
2023-01-08T05:31:04.849Z,70.58
2023-01-08T05:33:31.570Z,70.54
2023-01-08T05:35:58.216Z,70.60
2023-01-08T05:38:24.936Z,70.31
2023-01-08T05:40:52.893Z,70.92
2023-01-08T05:43:19.585Z,70.63
2023-01-08T05:45:46.249Z,70.54
2023-01-08T05:48:12.907Z,70.53
2023-01-08T05:50:39.634Z,71.12
2023-01-08T05:53:07.816Z,70.45
2023-01-08T05:55:35.143Z,70.38
2023-01-08T05:58:03.124Z,70.57
2023-01-08T06:00:30.420Z,70.80
2023-01-08T06:02:57.236Z,70.54
2023-01-08T06:05:24.127Z,70.65
2023-01-08T06:07:50.917Z,70.35
2023-01-08T06:10:17.929Z,70.26
2023-01-08T06:12:44.548Z,70.20
2023-01-08T06:15:12.472Z,70.70
2023-01-08T06:17:39.212Z,70.62
2023-01-08T06:20:06.433Z,70.37
2023-01-08T06:22:34.052Z,71.02
2023-01-08T06:25:01.209Z,71.62
2023-01-08T06:27:27.960Z,71.22
2023-01-08T06:29:54.717Z,71.10
2023-01-08T06:32:21.433Z,71.91
2023-01-08T06:34:48.083Z,71.47
2023-01-08T06:37:15.121Z,71.29
2023-01-08T06:39:41.771Z,71.42
2023-01-08T06:42:08.558Z,71.47
2023-01-08T06:44:35.233Z,71.30
2023-01-08T06:47:01.824Z,71.65
2023-01-08T06:49:28.483Z,71.78
2023-01-08T06:51:55.206Z,71.42
2023-01-08T06:54:21.907Z,72.13
2023-01-08T06:56:54.121Z,71.31
2023-01-08T06:59:21.687Z,70.90
2023-01-08T07:01:49.270Z,70.80
2023-01-08T07:04:16.836Z,70.88
2023-01-08T07:06:43.528Z,71.31
2023-01-08T07:09:14.864Z,71.08
2023-01-08T07:11:41.847Z,71.53
2023-01-08T07:14:08.743Z,71.41
2023-01-08T07:16:36.163Z,71.36
2023-01-08T07:19:02.930Z,70.88
2023-01-08T07:21:30.995Z,71.58
2023-01-08T07:23:59.392Z,71.65
2023-01-08T07:26:26.654Z,71.97
2023-01-08T07:28:53.381Z,72.07
2023-01-08T07:31:20.084Z,72.17
2023-01-08T07:33:46.714Z,71.99
2023-01-08T07:36:13.513Z,72.42
2023-01-08T07:38:40.315Z,72.20
2023-01-08T07:41:07.027Z,73.04
2023-01-08T07:43:35.206Z,72.92
2023-01-08T07:46:03.790Z,72.58
2023-01-08T07:48:30.627Z,72.72
2023-01-08T07:51:04.761Z,72.90
2023-01-08T07:53:31.577Z,72.60
2023-01-08T07:56:07.542Z,72.25
2023-01-08T07:58:35.148Z,71.58
2023-01-08T08:01:02.485Z,71.30
2023-01-08T08:03:29.392Z,71.45
2023-01-08T08:05:56.067Z,71.71
2023-01-08T08:08:22.782Z,72.12
2023-01-08T08:10:49.474Z,71.94
2023-01-08T08:13:16.228Z,71.59
2023-01-08T08:15:43.058Z,72.07
2023-01-08T08:18:10.190Z,72.22
2023-01-08T08:20:37.218Z,72.30
2023-01-08T08:23:13.797Z,71.74
2023-01-08T08:25:43.200Z,72.55
2023-01-08T08:28:11.772Z,72.36
2023-01-08T08:30:42.161Z,72.66
2023-01-08T08:33:09.780Z,72.36
2023-01-08T08:35:37.126Z,72.53
2023-01-08T08:38:04.447Z,72.32
2023-01-08T08:40:31.460Z,71.98
2023-01-08T08:43:00.198Z,71.85
2023-01-08T08:45:27.639Z,72.24
2023-01-08T08:47:54.796Z,71.49
2023-01-08T08:50:21.796Z,71.27
2023-01-08T08:52:48.947Z,70.85
2023-01-08T08:55:18.461Z,70.87
2023-01-08T08:57:46.812Z,70.80
2023-01-08T09:00:15.189Z,70.42
2023-01-08T09:02:42.081Z,70.33
2023-01-08T09:05:09.394Z,70.45
2023-01-08T09:07:36.223Z,70.54
2023-01-08T09:10:03.778Z,70.58
2023-01-08T09:12:30.448Z,70.70
2023-01-08T09:14:57.351Z,70.03
2023-01-08T09:17:25.722Z,70.10
2023-01-08T09:19:52.709Z,70.14
2023-01-08T09:22:19.592Z,69.74
2023-01-08T09:24:46.234Z,70.18
2023-01-08T09:27:13.748Z,70.14
2023-01-08T09:29:40.629Z,69.86
2023-01-08T09:32:07.974Z,70.23
2023-01-08T09:34:36.283Z,70.73
2023-01-08T09:37:04.655Z,70.38
2023-01-08T09:39:31.723Z,70.16
2023-01-08T09:42:01.982Z,69.43
2023-01-08T09:44:34.850Z,68.98
2023-01-08T09:47:02.551Z,68.59
2023-01-08T09:49:45.628Z,68.47
2023-01-08T09:52:13.695Z,68.31
2023-01-08T09:54:41.493Z,68.51
2023-01-08T09:57:17.955Z,68.61
2023-01-08T09:59:47.881Z,69.07
2023-01-08T10:02:17.566Z,68.78
2023-01-08T10:04:45.066Z,69.48
2023-01-08T10:07:21.342Z,69.39
2023-01-08T10:09:50.184Z,69.44
2023-01-08T10:12:31.066Z,69.21
2023-01-08T10:15:04.774Z,68.82
2023-01-08T10:17:45.412Z,68.85
2023-01-08T10:20:14.207Z,69.00
2023-01-08T10:22:40.991Z,69.16
2023-01-08T10:25:13.871Z,69.22
2023-01-08T10:28:03.403Z,68.75
2023-01-08T10:30:33.075Z,68.59
2023-01-08T10:33:06.010Z,67.63
2023-01-08T10:35:38.639Z,66.57
2023-01-08T10:38:05.720Z,66.83
2023-01-08T10:40:42.088Z,66.51
2023-01-08T10:43:16.109Z,66.29
2023-01-08T10:45:53.280Z,66.12
2023-01-08T10:48:20.512Z,66.20
2023-01-08T10:50:47.885Z,66.58
2023-01-08T10:53:24.823Z,66.90
2023-01-08T10:56:01.314Z,67.58
2023-01-08T10:58:29.226Z,67.02
2023-01-08T11:01:08.430Z,66.74
2023-01-08T11:03:35.808Z,67.19
2023-01-08T11:06:11.496Z,67.48
2023-01-08T11:08:38.308Z,67.19
2023-01-08T11:11:10.047Z,66.97
2023-01-08T11:13:37.959Z,66.38
2023-01-08T11:16:13.030Z,65.97
2023-01-08T11:18:47.725Z,65.81
2023-01-08T11:21:23.956Z,65.69
2023-01-08T11:24:18.574Z,66.08
2023-01-08T11:26:52.028Z,65.58
2023-01-08T11:29:28.177Z,66.02
2023-01-08T11:32:26.821Z,66.90
2023-01-08T11:34:53.494Z,67.36
2023-01-08T11:37:27.426Z,66.54
2023-01-08T11:39:55.160Z,66.52
2023-01-08T11:42:44.736Z,66.35
2023-01-08T11:45:32.262Z,66.44
2023-01-08T11:48:29.758Z,66.42
2023-01-08T11:51:25.025Z,67.58
2023-01-08T11:54:10.364Z,66.75
2023-01-08T11:56:53.740Z,66.15
2023-01-08T11:59:41.901Z,66.06
2023-01-08T12:02:45.895Z,65.30
2023-01-08T12:05:35.620Z,65.56
2023-01-08T12:08:25.319Z,64.88
2023-01-08T12:10:57.774Z,64.56
2023-01-08T12:13:39.772Z,64.55
2023-01-08T12:16:46.121Z,64.19
2023-01-08T12:19:43.844Z,63.68
2023-01-08T12:22:34.135Z,63.41
2023-01-08T12:25:19.279Z,63.38
2023-01-08T12:28:07.023Z,63.17
2023-01-08T12:30:55.242Z,62.17
2023-01-08T12:33:39.540Z,63.36
2023-01-08T12:36:10.682Z,63.90
2023-01-08T12:38:44.666Z,65.11
2023-01-08T12:41:13.792Z,64.50
2023-01-08T12:44:04.314Z,64.22
2023-01-08T12:46:35.902Z,64.34
2023-01-08T12:49:06.249Z,64.43
2023-01-08T12:51:41.442Z,63.93
2023-01-08T12:54:08.218Z,63.84
2023-01-08T12:56:59.489Z,63.54
2023-01-08T12:59:54.377Z,63.10
2023-01-08T13:02:48.222Z,62.78
2023-01-08T13:05:18.031Z,62.86
2023-01-08T13:07:51.212Z,62.89
2023-01-08T13:10:36.272Z,62.70
2023-01-08T13:13:05.757Z,62.12
2023-01-08T13:15:33.808Z,61.70
2023-01-08T13:18:15.695Z,61.97
2023-01-08T13:20:42.798Z,61.65
2023-01-08T13:23:27.182Z,61.12
2023-01-08T13:25:57.177Z,61.38
2023-01-08T13:28:30.167Z,61.32
2023-01-08T13:31:09.203Z,61.00
2023-01-08T13:33:41.676Z,60.94
2023-01-08T13:36:27.858Z,61.00
2023-01-08T13:39:09.902Z,60.77
2023-01-08T13:41:41.594Z,60.63
2023-01-08T13:44:27.134Z,61.57
2023-01-08T13:46:56.713Z,61.24
2023-01-08T13:49:27.125Z,61.18
2023-01-08T13:51:54.289Z,61.27
2023-01-08T13:54:30.117Z,61.56
2023-01-08T13:57:04.346Z,62.28
2023-01-08T13:59:40.399Z,61.82
2023-01-08T14:02:54.880Z,62.01
2023-01-08T14:05:29.326Z,61.80
2023-01-08T14:07:57.143Z,61.91
2023-01-08T14:10:25.235Z,61.45
2023-01-08T14:12:52.298Z,61.64
2023-01-08T14:15:25.685Z,61.63
2023-01-08T14:17:53.635Z,60.93
2023-01-08T14:20:28.809Z,60.71
2023-01-08T14:22:55.838Z,62.23
2023-01-08T14:25:22.979Z,62.04
2023-01-08T14:28:04.489Z,62.22
2023-01-08T14:30:31.617Z,62.06
2023-01-08T14:32:59.716Z,61.78
2023-01-08T14:35:35.328Z,61.62
2023-01-08T14:38:03.235Z,61.38
2023-01-08T14:40:34.186Z,61.51
2023-01-08T14:43:09.462Z,61.03
2023-01-08T14:45:38.124Z,60.88
2023-01-08T14:48:19.517Z,60.75
2023-01-08T14:51:03.161Z,60.54
2023-01-08T14:53:35.427Z,61.11
2023-01-08T14:56:04.469Z,61.43
2023-01-08T14:58:37.774Z,61.34
2023-01-08T15:01:15.053Z,61.55
2023-01-08T15:03:43.812Z,61.78
2023-01-08T15:06:11.679Z,61.86
2023-01-08T15:08:39.502Z,62.71
2023-01-08T15:11:18.417Z,62.34
2023-01-08T15:13:47.832Z,63.11
2023-01-08T15:16:31.912Z,62.13
2023-01-08T15:19:11.766Z,62.70
2023-01-08T15:21:39.623Z,62.59
2023-01-08T15:24:07.409Z,62.68
2023-01-08T15:26:34.408Z,63.09
2023-01-08T15:29:06.959Z,62.50
2023-01-08T15:31:47.486Z,62.54
2023-01-08T15:34:20.475Z,62.56
2023-01-08T15:36:47.926Z,63.39
2023-01-08T15:39:14.620Z,62.99
2023-01-08T15:42:00.039Z,63.69
2023-01-08T15:44:26.722Z,63.49
2023-01-08T15:46:53.546Z,63.40
2023-01-08T15:49:20.535Z,63.72
2023-01-08T15:51:49.609Z,64.16
2023-01-08T15:54:16.649Z,64.39
2023-01-08T15:56:43.532Z,64.54
2023-01-08T15:59:11.273Z,64.62
2023-01-08T16:01:38.504Z,64.85
2023-01-08T16:04:05.325Z,65.05
2023-01-08T16:06:32.023Z,64.80
2023-01-08T16:09:00.377Z,65.05
2023-01-08T16:11:27.724Z,65.29
2023-01-08T16:13:55.155Z,65.24
2023-01-08T16:16:22.279Z,64.97
2023-01-08T16:18:49.282Z,64.81
2023-01-08T16:21:16.002Z,65.34
2023-01-08T16:23:42.681Z,65.28
2023-01-08T16:26:12.105Z,65.16
2023-01-08T16:28:38.871Z,65.55
2023-01-08T16:31:06.508Z,65.81
2023-01-08T16:33:33.276Z,65.49
2023-01-08T16:36:02.083Z,65.72
2023-01-08T16:38:29.869Z,65.52
2023-01-08T16:40:57.164Z,65.18
2023-01-08T16:43:25.400Z,64.61
2023-01-08T16:45:52.729Z,65.49
2023-01-08T16:48:19.551Z,65.61
2023-01-08T16:50:46.705Z,65.46
2023-01-08T16:53:13.662Z,65.27
2023-01-08T16:55:41.379Z,65.54
2023-01-08T16:58:08.712Z,65.74
2023-01-08T17:00:36.772Z,65.71
2023-01-08T17:03:05.295Z,65.22
2023-01-08T17:05:32.552Z,65.44
2023-01-08T17:07:59.330Z,65.66
2023-01-08T17:10:26.734Z,65.54
2023-01-08T17:12:53.423Z,65.93
2023-01-08T17:15:20.077Z,66.14
2023-01-08T17:17:46.841Z,65.99
2023-01-08T17:20:13.785Z,66.12
2023-01-08T17:22:40.390Z,66.56
2023-01-08T17:25:07.375Z,66.82
2023-01-08T17:27:37.295Z,66.34
2023-01-08T17:30:04.442Z,66.78
2023-01-08T17:32:31.074Z,66.30
2023-01-08T17:34:57.860Z,66.79
2023-01-08T17:37:24.491Z,66.71
2023-01-08T17:39:51.335Z,67.21
2023-01-08T17:42:29.809Z,67.61
2023-01-08T17:45:00.253Z,67.09
2023-01-08T17:47:27.062Z,67.65
2023-01-08T17:49:57.353Z,67.44
2023-01-08T17:52:25.532Z,67.88
2023-01-08T17:54:52.925Z,67.89
2023-01-08T17:57:20.634Z,67.37
2023-01-08T17:59:48.485Z,67.48
2023-01-08T18:02:16.626Z,67.62
2023-01-08T18:04:45.442Z,67.91
2023-01-08T18:07:12.884Z,67.80
2023-01-08T18:09:39.525Z,67.60
2023-01-08T18:12:07.175Z,67.89
2023-01-08T18:14:36.108Z,68.03
2023-01-08T18:17:02.997Z,67.72
2023-01-08T18:19:29.638Z,68.06
2023-01-08T18:21:56.620Z,67.77
2023-01-08T18:24:23.434Z,68.24
2023-01-08T18:26:50.680Z,68.70
2023-01-08T18:29:17.294Z,68.06
2023-01-08T18:31:46.231Z,68.20
2023-01-08T18:34:15.023Z,68.39
2023-01-08T18:36:41.977Z,68.83
2023-01-08T18:39:08.712Z,68.54
2023-01-08T18:41:54.289Z,69.06
2023-01-08T18:44:21.131Z,68.61
2023-01-08T18:46:48.291Z,68.83
2023-01-08T18:49:15.260Z,69.27
2023-01-08T18:51:42.544Z,69.03
2023-01-08T18:54:11.105Z,69.53
2023-01-08T18:56:38.028Z,69.36
2023-01-08T18:59:06.313Z,69.60
2023-01-08T19:01:35.087Z,69.93
2023-01-08T19:04:02.332Z,69.72
2023-01-08T19:06:29.038Z,70.35
2023-01-08T19:08:58.366Z,70.22
2023-01-08T19:11:25.784Z,69.55
2023-01-08T19:13:58.772Z,69.54
2023-01-08T19:16:26.671Z,69.84
2023-01-08T19:18:53.984Z,69.84
2023-01-08T19:21:20.843Z,69.45
2023-01-08T19:23:47.897Z,69.43
2023-01-08T19:26:15.013Z,69.11
2023-01-08T19:28:44.646Z,68.75
2023-01-08T19:31:17.219Z,69.16
2023-01-08T19:33:46.179Z,68.86
2023-01-08T19:36:15.719Z,68.91
2023-01-08T19:38:43.902Z,69.08
2023-01-08T19:41:34.764Z,69.22
2023-01-08T19:44:02.566Z,69.05
2023-01-08T19:46:30.144Z,68.70
2023-01-08T19:48:58.769Z,68.90
2023-01-08T19:51:26.684Z,68.53
2023-01-08T19:53:53.944Z,68.77
2023-01-08T19:56:20.925Z,68.73
2023-01-08T19:58:47.750Z,68.80
2023-01-08T20:01:17.547Z,68.08
2023-01-08T20:03:44.765Z,68.01
2023-01-08T20:06:16.236Z,68.53
2023-01-08T20:08:45.456Z,68.28
2023-01-08T20:11:15.006Z,68.31
2023-01-08T20:13:42.204Z,68.07
2023-01-08T20:16:13.261Z,68.03
2023-01-08T20:18:40.230Z,68.08
2023-01-08T20:21:12.961Z,68.10
2023-01-08T20:23:39.740Z,68.21
2023-01-08T20:26:12.086Z,68.19
2023-01-08T20:28:39.229Z,68.84
2023-01-08T20:31:18.987Z,68.64
2023-01-08T20:33:46.322Z,68.23
2023-01-08T20:36:18.265Z,68.33
2023-01-08T20:38:45.896Z,68.34
2023-01-08T20:41:12.705Z,68.26
2023-01-08T20:43:40.846Z,68.43
2023-01-08T20:46:13.766Z,68.79
2023-01-08T20:48:48.422Z,68.95
2023-01-08T20:51:16.339Z,68.92
2023-01-08T20:53:43.403Z,69.03
2023-01-08T20:56:13.564Z,69.23
2023-01-08T20:58:46.088Z,69.55
2023-01-08T21:01:17.219Z,69.70
2023-01-08T21:03:44.942Z,69.85
2023-01-08T21:06:14.406Z,70.42
2023-01-08T21:08:41.695Z,69.95
2023-01-08T21:11:09.850Z,70.19
2023-01-08T21:13:37.608Z,70.73
2023-01-08T21:16:07.801Z,70.67
2023-01-08T21:18:34.659Z,70.95
2023-01-08T21:21:05.366Z,71.30
2023-01-08T21:23:33.500Z,71.08
2023-01-08T21:26:06.002Z,70.70
2023-01-08T21:28:33.291Z,71.26
2023-01-08T21:31:13.759Z,71.51
2023-01-08T21:33:41.460Z,72.17
2023-01-08T21:36:12.036Z,71.65
2023-01-08T21:38:41.019Z,71.75
2023-01-08T21:41:10.851Z,71.80
2023-01-08T21:43:56.005Z,71.48
2023-01-08T21:46:28.024Z,71.93
2023-01-08T21:48:54.739Z,72.03
2023-01-08T21:51:40.129Z,71.81
2023-01-08T21:54:06.925Z,72.01
2023-01-08T21:56:33.607Z,72.10
2023-01-08T21:59:00.267Z,72.31
2023-01-08T22:01:26.997Z,72.05
2023-01-08T22:03:53.834Z,72.12
2023-01-08T22:06:20.551Z,72.71
2023-01-08T22:08:51.496Z,72.20
2023-01-08T22:11:18.580Z,72.45
2023-01-08T22:13:45.321Z,72.66
2023-01-08T22:16:12.591Z,72.71
2023-01-08T22:18:39.679Z,72.55
2023-01-08T22:21:12.074Z,72.86
2023-01-08T22:23:39.300Z,72.81
2023-01-08T22:26:10.758Z,72.72
2023-01-08T22:28:39.325Z,72.62
2023-01-08T22:31:09.245Z,72.93
2023-01-08T22:33:37.175Z,73.35
2023-01-08T22:36:09.942Z,73.30
2023-01-08T22:38:37.399Z,73.22
2023-01-08T22:41:04.337Z,73.54
2023-01-08T22:43:31.015Z,74.91
2023-01-08T22:45:59.685Z,76.15
2023-01-08T22:48:27.571Z,76.30
2023-01-08T22:50:54.303Z,77.22
2023-01-08T22:53:21.070Z,77.36
2023-01-08T22:55:48.325Z,77.68
2023-01-08T22:58:16.423Z,76.09
2023-01-08T23:00:43.951Z,76.46
2023-01-08T23:03:11.272Z,75.23
2023-01-08T23:05:37.926Z,75.71
2023-01-08T23:08:06.651Z,75.77
2023-01-08T23:10:33.903Z,75.67
2023-01-08T23:13:00.911Z,75.98
2023-01-08T23:15:27.647Z,75.96
2023-01-08T23:17:54.420Z,76.74
2023-01-08T23:20:21.264Z,77.03
2023-01-08T23:22:48.597Z,77.19
2023-01-08T23:25:15.939Z,76.91
2023-01-08T23:27:44.728Z,77.02
2023-01-08T23:30:12.299Z,76.94
2023-01-08T23:32:39.818Z,76.92
2023-01-08T23:35:06.849Z,77.15
2023-01-08T23:37:34.363Z,76.29
2023-01-08T23:40:01.092Z,76.77
2023-01-08T23:42:29.289Z,77.03
2023-01-08T23:44:56.214Z,77.67
2023-01-08T23:47:23.013Z,76.40
2023-01-08T23:49:49.869Z,76.39
2023-01-08T23:52:16.529Z,76.76
2023-01-08T23:54:43.227Z,76.07
2023-01-08T23:57:09.874Z,76.01
2023-01-08T23:59:36.634Z,75.32
